Time;durP1;ratioP1;P1;durP2;ratioP2;P2;SDS_P1;SDS_P2;PMS_P1;PMS_P2;Temp;Humidity;BMP_temperature;BMP_pressure;BME280_temperature;BME280_humidity;BME280_pressure;Samples;Min_cycle;Max_cycle;Signal;HPM_P1;HPM_P2
2023/06/05 00:02:06;;;;;;;6.90;6.10;;;16.10;99.90;;;;;;5112357;28;20202;-76
2023/06/05 00:04:35;;;;;;;7.90;6.27;;;16.00;99.90;;;;;;5112706;28;20263;-76
2023/06/05 00:07:04;;;;;;;7.50;6.07;;;16.00;99.90;;;;;;5112076;28;20221;-75
2023/06/05 00:09:32;;;;;;;7.40;5.93;;;16.00;99.90;;;;;;5092165;28;20207;-76
2023/06/05 00:12:00;;;;;;;8.03;5.77;;;16.00;99.90;;;;;;5091637;28;20265;-77
2023/06/05 00:14:30;;;;;;;6.27;5.50;;;16.00;99.90;;;;;;5092353;28;20587;-77
2023/06/05 00:16:58;;;;;;;8.80;6.23;;;15.90;99.90;;;;;;5092264;28;20205;-78
2023/06/05 00:19:26;;;;;;;7.90;6.00;;;15.90;99.90;;;;;;5092091;28;20635;-76
2023/06/05 00:21:54;;;;;;;6.87;5.80;;;15.90;99.90;;;;;;5092086;28;20225;-76
2023/06/05 00:24:23;;;;;;;9.23;6.07;;;15.90;99.90;;;;;;5091966;28;20207;-76
2023/06/05 00:26:51;;;;;;;8.10;6.00;;;15.80;99.90;;;;;;5091994;28;20210;-77
2023/06/05 00:29:19;;;;;;;6.83;6.13;;;15.80;99.90;;;;;;5091240;28;20669;-78
2023/06/05 00:31:48;;;;;;;8.70;6.67;;;15.80;99.90;;;;;;5091663;28;20289;-75
2023/06/05 00:34:17;;;;;;;6.47;5.70;;;15.80;99.90;;;;;;5091386;28;20242;-75
2023/06/05 00:36:45;;;;;;;8.67;5.97;;;15.80;99.90;;;;;;5091837;28;20206;-78
2023/06/05 00:39:13;;;;;;;8.77;6.33;;;15.80;99.90;;;;;;5091811;28;20209;-76
2023/06/05 00:41:41;;;;;;;9.93;6.63;;;15.80;99.90;;;;;;5091992;28;20207;-75
2023/06/05 00:44:10;;;;;;;9.40;6.73;;;15.80;99.90;;;;;;5091477;28;20218;-78
2023/06/05 00:46:39;;;;;;;7.97;5.90;;;15.80;99.90;;;;;;5100108;28;20581;-78
2023/06/05 00:49:09;;;;;;;8.10;5.90;;;15.80;99.90;;;;;;5103475;28;20211;-77
2023/06/05 00:51:38;;;;;;;8.53;6.43;;;15.80;99.90;;;;;;5111799;28;20206;-77
2023/06/05 00:54:08;;;;;;;8.83;6.40;;;15.80;99.90;;;;;;5111585;28;20318;-78
2023/06/05 00:56:37;;;;;;;10.60;6.60;;;15.80;99.90;;;;;;5112124;28;20218;-77
2023/06/05 00:59:06;;;;;;;7.70;6.60;;;15.80;99.90;;;;;;5110846;28;20725;-76
2023/06/05 01:01:34;;;;;;;7.50;6.20;;;15.80;99.90;;;;;;5115802;28;20569;-77
2023/06/05 01:04:02;;;;;;;7.20;6.50;;;15.90;99.90;;;;;;5115178;28;20206;-76
2023/06/05 01:06:33;;;;;;;9.43;6.60;;;15.80;99.90;;;;;;5114590;28;20555;-76
2023/06/05 01:09:04;;;;;;;8.87;6.70;;;15.90;99.90;;;;;;5115365;28;20205;-76
2023/06/05 01:11:38;;;;;;;8.17;6.13;;;15.90;99.90;;;;;;5115259;28;20249;-76
2023/06/05 01:14:16;;;;;;;10.53;6.37;;;15.90;99.90;;;;;;5104836;28;20706;-77
2023/06/05 01:16:48;;;;;;;8.43;6.20;;;15.80;99.90;;;;;;5115797;28;20213;-77
2023/06/05 01:19:18;;;;;;;11.03;6.57;;;15.80;99.90;;;;;;5115446;28;20289;-77
2023/06/05 01:21:48;;;;;;;7.07;6.07;;;15.90;99.90;;;;;;5115249;28;20210;-76
2023/06/05 01:24:21;;;;;;;8.43;6.83;;;15.80;99.90;;;;;;5102115;28;20234;-76
2023/06/05 01:27:02;;;;;;;8.23;6.20;;;15.90;99.90;;;;;;5095159;28;20207;-76
2023/06/05 01:29:36;;;;;;;9.37;6.37;;;15.80;99.90;;;;;;5094797;28;20195;-75
2023/06/05 01:32:15;;;;;;;9.80;7.23;;;15.80;99.90;;;;;;5094847;28;20298;-76
2023/06/05 01:34:48;;;;;;;11.20;6.90;;;15.80;99.90;;;;;;5094976;28;20656;-77
2023/06/05 01:37:18;;;;;;;8.47;6.40;;;15.90;99.90;;;;;;5094877;28;20681;-77
2023/06/05 01:39:49;;;;;;;9.57;6.63;;;15.80;99.90;;;;;;5095738;28;20249;-78
2023/06/05 01:42:18;;;;;;;9.27;6.80;;;15.80;99.90;;;;;;5095271;28;20238;-77
2023/06/05 01:44:46;;;;;;;7.27;6.53;;;15.80;99.90;;;;;;5095228;28;20583;-78
2023/06/05 01:47:15;;;;;;;8.93;6.20;;;15.80;99.90;;;;;;5103701;28;20206;-75
2023/06/05 01:49:44;;;;;;;9.00;6.73;;;15.80;99.90;;;;;;5109839;28;20606;-76
2023/06/05 01:52:12;;;;;;;10.07;6.13;;;15.80;99.90;;;;;;5102847;28;20206;-77
2023/06/05 01:54:42;;;;;;;7.83;6.57;;;15.80;99.90;;;;;;5096552;28;20227;-77
2023/06/05 01:57:11;;;;;;;7.30;6.23;;;15.80;99.90;;;;;;5105273;28;20206;-78
2023/06/05 01:59:40;;;;;;;10.30;6.90;;;15.80;99.90;;;;;;5109038;28;20230;-75
2023/06/05 02:02:08;;;;;;;7.47;6.13;;;15.70;99.90;;;;;;5097069;28;20641;-77
2023/06/05 02:04:37;;;;;;;7.83;6.17;;;15.70;99.90;;;;;;5097771;28;20253;-77
2023/06/05 02:07:05;;;;;;;7.70;6.50;;;15.70;99.90;;;;;;5096248;28;20588;-76
2023/06/05 02:09:33;;;;;;;13.73;7.20;;;15.70;99.90;;;;;;5095083;28;20648;-77
2023/06/05 02:12:03;;;;;;;9.37;7.23;;;15.70;99.90;;;;;;5094847;28;20211;-77
2023/06/05 02:14:35;;;;;;;8.20;6.73;;;15.60;99.90;;;;;;5094512;28;20271;-78
2023/06/05 02:17:04;;;;;;;8.40;6.70;;;15.60;99.90;;;;;;5094534;28;20207;-76
2023/06/05 02:19:33;;;;;;;7.73;6.93;;;15.60;99.90;;;;;;5094543;28;20599;-77
2023/06/05 02:22:01;;;;;;;9.70;6.57;;;15.60;99.90;;;;;;5096573;28;20207;-76
2023/06/05 02:24:30;;;;;;;9.90;6.60;;;15.60;99.90;;;;;;5093886;28;20203;-77
2023/06/05 02:26:58;;;;;;;7.70;6.80;;;15.60;99.90;;;;;;5093231;28;20668;-76
2023/06/05 02:29:27;;;;;;;8.53;6.93;;;15.60;99.90;;;;;;5093581;28;20260;-76
2023/06/05 02:31:57;;;;;;;8.80;6.80;;;15.60;99.90;;;;;;5093320;28;20564;-76
2023/06/05 02:34:25;;;;;;;10.60;7.37;;;15.60;99.90;;;;;;5093211;28;20235;-77
2023/06/05 02:36:53;;;;;;;8.83;6.90;;;15.60;99.90;;;;;;5093015;28;20203;-77
2023/06/05 02:39:22;;;;;;;10.20;7.10;;;15.50;99.90;;;;;;5096314;28;20221;-76
2023/06/05 02:41:50;;;;;;;8.40;6.90;;;15.50;99.90;;;;;;5113379;28;20223;-76
2023/06/05 02:44:18;;;;;;;7.80;6.77;;;15.50;99.90;;;;;;5108331;28;20229;-76
2023/06/05 02:46:47;;;;;;;8.37;7.03;;;15.40;99.90;;;;;;5098343;28;20222;-75
2023/06/05 02:49:17;;;;;;;8.10;7.30;;;15.40;99.90;;;;;;5095732;28;20203;-75
2023/06/05 02:51:45;;;;;;;7.67;6.83;;;15.40;99.90;;;;;;5093329;28;20223;-74
2023/06/05 02:54:13;;;;;;;10.47;6.90;;;15.30;99.90;;;;;;5098197;28;20273;-75
2023/06/05 02:56:43;;;;;;;8.43;7.10;;;15.30;99.90;;;;;;5112324;28;20657;-77
2023/06/05 02:59:12;;;;;;;8.97;7.83;;;15.20;99.90;;;;;;5113346;28;20225;-74
2023/06/05 03:01:43;;;;;;;9.43;6.63;;;15.20;99.90;;;;;;5113218;28;20271;-75
2023/06/05 03:04:12;;;;;;;9.83;7.47;;;15.20;99.90;;;;;;5104661;28;20260;-77
2023/06/05 03:06:43;;;;;;;10.10;7.93;;;15.10;99.90;;;;;;5092595;28;20206;-77
2023/06/05 03:09:11;;;;;;;8.47;7.57;;;15.10;99.90;;;;;;5092899;28;20215;-76
2023/06/05 03:11:40;;;;;;;10.63;7.70;;;15.10;99.90;;;;;;5091930;28;20639;-76
2023/06/05 03:14:08;;;;;;;10.93;8.03;;;15.10;99.90;;;;;;5092797;28;20246;-78
2023/06/05 03:16:41;;;;;;;8.83;7.60;;;15.00;99.90;;;;;;5092219;28;20203;-76
2023/06/05 03:19:09;;;;;;;10.53;8.00;;;15.00;99.90;;;;;;5091889;28;20290;-76
2023/06/05 03:21:39;;;;;;;8.40;7.30;;;15.00;99.90;;;;;;5108087;28;20261;-75
2023/06/05 03:24:12;;;;;;;9.73;7.93;;;15.00;99.90;;;;;;5108813;28;20198;-76
2023/06/05 03:26:41;;;;;;;11.27;8.40;;;15.00;99.90;;;;;;5112108;28;20660;-78
2023/06/05 03:29:10;;;;;;;9.43;7.90;;;14.90;99.90;;;;;;5112593;28;20203;-76
2023/06/05 03:31:39;;;;;;;9.97;7.97;;;14.90;99.90;;;;;;5102738;28;20210;-78
2023/06/05 03:34:07;;;;;;;10.27;8.50;;;14.90;99.90;;;;;;5112175;28;20249;-76
2023/06/05 03:36:37;;;;;;;13.40;8.83;;;14.90;99.90;;;;;;5112372;28;20551;-77
2023/06/05 03:39:05;;;;;;;9.70;8.23;;;14.90;99.90;;;;;;5112931;28;20230;-78
2023/06/05 03:41:35;;;;;;;13.03;7.90;;;14.90;99.90;;;;;;5104026;28;20566;-77
2023/06/05 03:44:03;;;;;;;9.83;8.30;;;14.90;99.90;;;;;;5091863;28;20222;-76
2023/06/05 03:46:31;;;;;;;10.70;8.03;;;14.90;99.90;;;;;;5094810;28;20209;-77
2023/06/05 03:49:01;;;;;;;10.47;8.50;;;14.90;99.90;;;;;;5104563;28;20207;-77
2023/06/05 03:51:29;;;;;;;10.00;8.43;;;14.90;99.90;;;;;;5093573;28;20358;-76
2023/06/05 03:53:58;;;;;;;9.80;8.30;;;14.80;99.90;;;;;;5111983;28;20234;-77
2023/06/05 03:56:31;;;;;;;10.30;8.40;;;14.90;99.90;;;;;;5112032;28;20245;-76
2023/06/05 03:59:08;;;;;;;10.47;8.50;;;14.90;99.90;;;;;;5112859;28;20182;-75
2023/06/05 04:01:37;;;;;;;10.30;8.37;;;14.90;99.90;;;;;;5098635;28;20206;-77
2023/06/05 04:04:07;;;;;;;11.93;8.73;;;14.90;99.90;;;;;;5092384;28;20203;-76
2023/06/05 04:06:36;;;;;;;11.53;8.27;;;14.90;99.90;;;;;;5092190;28;20289;-76
2023/06/05 04:09:11;;;;;;;11.30;8.03;;;14.90;99.90;;;;;;5092017;28;20297;-77
2023/06/05 04:11:41;;;;;;;10.67;8.40;;;14.90;99.90;;;;;;5091571;28;20214;-77
2023/06/05 04:14:11;;;;;;;10.03;8.53;;;14.90;99.90;;;;;;5091568;28;20238;-76
2023/06/05 04:16:41;;;;;;;8.87;7.83;;;15.00;99.90;;;;;;5100259;28;20210;-77
2023/06/05 04:19:11;;;;;;;9.77;8.73;;;15.00;99.90;;;;;;5112208;28;20240;-76
2023/06/05 04:21:41;;;;;;;14.03;8.70;;;15.00;99.90;;;;;;5107282;28;20215;-77
2023/06/05 04:24:10;;;;;;;9.87;8.53;;;15.00;99.90;;;;;;5104688;28;20195;-77
2023/06/05 04:26:41;;;;;;;12.87;9.03;;;15.00;99.90;;;;;;5091788;28;20210;-77
2023/06/05 04:29:13;;;;;;;9.30;8.33;;;15.00;99.90;;;;;;5091399;28;20202;-76
2023/06/05 04:31:42;;;;;;;9.40;8.27;;;15.10;99.90;;;;;;5092458;28;20306;-77
2023/06/05 04:34:11;;;;;;;9.97;8.83;;;15.10;99.90;;;;;;5099667;28;20656;-77
2023/06/05 04:36:40;;;;;;;10.97;9.17;;;15.10;99.90;;;;;;5116127;28;20209;-77
2023/06/05 04:39:14;;;;;;;12.20;8.70;;;15.20;99.90;;;;;;5097156;27;20210;-77
2023/06/05 04:41:44;;;;;;;15.13;9.00;;;15.20;99.90;;;;;;5095695;28;20187;-76
2023/06/05 04:44:16;;;;;;;11.50;9.17;;;15.20;99.90;;;;;;5095260;28;20235;-77
2023/06/05 04:46:45;;;;;;;12.20;9.63;;;15.10;99.90;;;;;;5103120;28;20206;-78
2023/06/05 04:49:14;;;;;;;11.80;9.57;;;15.10;99.90;;;;;;5107058;28;20206;-76
2023/06/05 04:51:43;;;;;;;12.87;8.80;;;15.20;99.90;;;;;;5115893;28;20206;-78
2023/06/05 04:54:12;;;;;;;11.80;9.07;;;15.20;99.90;;;;;;5095969;28;20664;-75
2023/06/05 04:56:40;;;;;;;11.50;8.57;;;15.20;99.90;;;;;;5102298;28;20247;-77
2023/06/05 04:59:09;;;;;;;11.63;8.73;;;15.20;99.90;;;;;;5095648;28;20275;-77
2023/06/05 05:01:40;;;;;;;13.77;9.10;;;15.20;99.90;;;;;;5094937;28;20233;-76
2023/06/05 05:04:09;;;;;;;9.00;8.10;;;15.30;99.90;;;;;;5095079;28;20248;-77
2023/06/05 05:06:37;;;;;;;8.83;7.90;;;15.30;99.90;;;;;;5094601;28;20303;-78
2023/06/05 05:09:05;;;;;;;14.47;8.37;;;15.40;99.90;;;;;;5094506;28;20203;-78
2023/06/05 05:11:35;;;;;;;11.43;8.27;;;15.50;99.90;;;;;;5105993;28;20241;-76
2023/06/05 05:14:03;;;;;;;13.03;7.93;;;15.70;99.90;;;;;;5103821;27;20206;-78
2023/06/05 05:16:32;;;;;;;11.53;7.63;;;15.80;99.90;;;;;;5112448;28;20672;-75
2023/06/05 05:19:05;;;;;;;11.23;7.70;;;15.90;99.90;;;;;;5113656;28;20323;-76
2023/06/05 05:21:33;;;;;;;9.73;7.00;;;16.00;99.90;;;;;;5113989;28;20214;-76
2023/06/05 05:24:01;;;;;;;9.43;7.10;;;16.10;99.90;;;;;;5098233;28;20256;-76
2023/06/05 05:26:30;;;;;;;9.70;6.77;;;16.20;99.90;;;;;;5093839;28;20213;-75
2023/06/05 05:28:58;;;;;;;10.13;6.90;;;16.20;99.90;;;;;;5094120;28;20566;-76
2023/06/05 05:31:27;;;;;;;10.20;6.90;;;16.10;99.90;;;;;;5111945;28;20214;-74
2023/06/05 05:33:56;;;;;;;9.27;6.93;;;16.10;99.90;;;;;;5101938;28;20224;-72
2023/06/05 05:36:26;;;;;;;8.83;6.53;;;16.10;99.90;;;;;;5094176;28;20262;-75
2023/06/05 05:38:54;;;;;;;7.90;6.67;;;16.20;99.90;;;;;;5104099;28;20204;-75
2023/06/05 05:41:26;;;;;;;8.00;6.73;;;16.20;99.90;;;;;;5104363;28;20203;-76
2023/06/05 05:43:58;;;;;;;12.70;7.67;;;16.10;99.90;;;;;;5093311;28;20227;-75
2023/06/05 05:46:29;;;;;;;10.67;7.37;;;16.10;99.90;;;;;;5094839;28;20290;-76
2023/06/05 05:48:57;;;;;;;9.27;6.97;;;16.10;99.90;;;;;;5094547;28;20260;-73
2023/06/05 05:51:26;;;;;;;10.23;7.20;;;16.10;99.90;;;;;;5099389;28;20203;-77
2023/06/05 05:53:55;;;;;;;8.37;6.17;;;16.10;99.90;;;;;;5094045;28;20230;-76
2023/06/05 05:56:23;;;;;;;11.60;6.90;;;16.30;99.90;;;;;;5094144;28;20235;-76
2023/06/05 05:58:51;;;;;;;7.90;6.57;;;16.60;99.90;;;;;;5093575;28;20676;-74
2023/06/05 06:01:19;;;;;;;9.30;6.47;;;16.80;99.90;;;;;;5094151;28;20563;-76
2023/06/05 06:03:49;;;;;;;6.93;5.90;;;17.30;99.90;;;;;;5093574;28;20245;-73
2023/06/05 06:06:20;;;;;;;9.27;6.47;;;17.70;99.90;;;;;;5093097;28;20560;-73
2023/06/05 06:08:52;;;;;;;10.20;6.47;;;18.00;99.90;;;;;;5091233;28;20771;-74
2023/06/05 06:11:21;;;;;;;9.37;6.20;;;18.20;99.90;;;;;;5099680;28;20711;-74
2023/06/05 06:13:49;;;;;;;8.07;6.20;;;18.30;99.90;;;;;;5092121;28;20326;-76
2023/06/05 06:16:17;;;;;;;7.00;5.90;;;18.40;99.90;;;;;;5112106;28;20222;-74
2023/06/05 06:18:46;;;;;;;8.83;6.00;;;18.60;99.90;;;;;;5109844;28;20211;-74
2023/06/05 06:21:15;;;;;;;9.23;5.43;;;18.80;99.90;;;;;;5103030;28;20202;-76
2023/06/05 06:23:47;;;;;;;8.20;5.63;;;19.40;99.90;;;;;;5103028;28;20615;-75
2023/06/05 06:26:19;;;;;;;6.03;5.40;;;20.40;99.90;;;;;;5113972;28;20207;-74
2023/06/05 06:28:48;;;;;;;6.43;5.03;;;21.20;99.90;;;;;;5113717;28;20194;-75
2023/06/05 06:31:16;;;;;;;8.63;5.30;;;22.20;98.80;;;;;;5113191;27;20233;-76
2023/06/05 06:33:45;;;;;;;7.77;5.07;;;23.20;95.00;;;;;;5093312;28;20685;-76
2023/06/05 06:36:13;;;;;;;9.03;5.33;;;24.00;91.30;;;;;;5100119;28;20227;-79
2023/06/05 06:38:41;;;;;;;10.27;5.80;;;24.00;88.60;;;;;;5112932;28;20206;-78
2023/06/05 06:41:09;;;;;;;7.40;4.90;;;23.20;90.30;;;;;;5114082;27;20214;-78
2023/06/05 06:43:39;;;;;;;8.70;5.50;;;22.80;91.70;;;;;;5113432;28;20279;-78
2023/06/05 06:46:07;;;;;;;7.37;5.20;;;22.50;92.70;;;;;;5093150;28;20203;-78
2023/06/05 06:48:35;;;;;;;8.60;5.30;;;22.60;91.50;;;;;;5092868;28;20729;-79
2023/06/05 06:51:04;;;;;;;6.63;5.33;;;22.10;92.80;;;;;;5093387;28;20211;-78
2023/06/05 06:53:32;;;;;;;8.23;5.60;;;22.40;91.50;;;;;;5105594;28;20619;-77
2023/06/05 06:56:00;;;;;;;9.67;4.80;;;22.30;93.00;;;;;;5122061;28;20222;-78
2023/06/05 06:58:28;;;;;;;7.17;5.10;;;23.30;92.20;;;;;;5114743;28;20209;-78
2023/06/05 07:00:58;;;;;;;8.23;4.93;;;23.60;89.80;;;;;;5114281;28;20210;-76
2023/06/05 07:03:26;;;;;;;7.70;5.20;;;23.80;89.20;;;;;;5114129;28;20210;-78
2023/06/05 07:05:54;;;;;;;8.97;5.30;;;23.90;87.40;;;;;;5096988;28;20294;-79
2023/06/05 07:08:22;;;;;;;6.73;5.00;;;23.80;85.90;;;;;;5093261;28;20206;-79
2023/06/05 07:10:50;;;;;;;8.67;4.97;;;24.30;85.00;;;;;;5105055;28;20267;-80
2023/06/05 07:13:19;;;;;;;6.27;4.83;;;23.90;82.60;;;;;;5103677;28;20250;-79
2023/06/05 07:15:48;;;;;;;7.70;5.23;;;23.70;85.80;;;;;;5092791;28;20268;-78
2023/06/05 07:18:18;;;;;;;7.17;4.60;;;23.80;84.90;;;;;;5092976;28;20256;-78
2023/06/05 07:20:47;;;;;;;8.20;5.23;;;24.00;82.20;;;;;;5092818;28;20214;-78
2023/06/05 07:23:17;;;;;;;9.30;4.80;;;23.30;84.60;;;;;;5092511;28;20226;-76
2023/06/05 07:25:48;;;;;;;7.40;5.10;;;23.10;86.40;;;;;;5092665;28;20234;-78
2023/06/05 07:28:16;;;;;;;7.53;5.00;;;23.10;85.90;;;;;;5096085;28;20274;-77
2023/06/05 07:30:45;;;;;;;5.50;4.87;;;22.70;89.70;;;;;;5112626;28;20239;-79
2023/06/05 07:33:13;;;;;;;6.67;5.20;;;23.20;89.10;;;;;;5094469;28;20261;-77
2023/06/05 07:35:59;;;;;;;6.03;5.03;;;23.30;90.10;;;;;;5092513;28;20252;-78
2023/06/05 07:38:29;;;;;;;6.60;4.77;;;24.50;84.00;;;;;;5092072;28;20735;-79
2023/06/05 07:41:01;;;;;;;7.70;4.43;;;25.20;79.20;;;;;;5105449;28;20231;-78
2023/06/05 07:43:29;;;;;;;6.20;4.28;;;25.80;79.20;;;;;;5091865;28;20210;-79
2023/06/05 07:45:57;;;;;;;5.78;4.47;;;26.70;77.10;;;;;;5092881;28;20230;-78
2023/06/05 07:48:26;;;;;;;6.72;4.50;;;27.40;67.70;;;;;;5092296;28;20244;-78
2023/06/05 07:50:54;;;;;;;5.38;4.10;;;27.90;67.10;;;;;;5092757;28;20202;-77
2023/06/05 07:53:23;;;;;;;5.60;4.85;;;28.20;64.00;;;;;;5092068;28;20268;-76
2023/06/05 07:55:52;;;;;;;6.82;4.05;;;28.50;59.30;;;;;;5092601;28;20218;-78
2023/06/05 07:58:20;;;;;;;5.20;4.15;;;28.60;60.10;;;;;;5092061;28;20206;-77
2023/06/05 08:00:49;;;;;;;7.85;4.20;;;29.30;56.70;;;;;;5091849;28;20692;-78
2023/06/05 08:03:19;;;;;;;6.80;4.00;;;28.60;58.00;;;;;;5091592;28;20214;-78
2023/06/05 08:05:49;;;;;;;5.82;4.18;;;28.50;56.80;;;;;;5092219;28;20203;-76
2023/06/05 08:08:17;;;;;;;6.38;4.50;;;27.90;57.20;;;;;;5091715;28;20207;-77
2023/06/05 08:10:47;;;;;;;5.82;4.50;;;27.70;56.90;;;;;;5100060;28;20226;-76
2023/06/05 08:13:16;;;;;;;6.35;4.45;;;27.60;55.70;;;;;;5109047;28;20632;-76
2023/06/05 08:15:44;;;;;;;5.22;4.30;;;26.90;58.00;;;;;;5112317;28;20217;-78
2023/06/05 08:18:13;;;;;;;6.78;4.30;;;27.00;59.70;;;;;;5093323;28;20203;-77
2023/06/05 08:20:41;;;;;;;6.05;4.18;;;27.20;58.40;;;;;;5092610;28;20215;-76
2023/06/05 08:23:09;;;;;;;6.15;4.35;;;27.70;57.10;;;;;;5091538;28;20652;-78
2023/06/05 08:25:37;;;;;;;5.50;4.03;;;27.00;59.60;;;;;;5096842;28;20202;-75
2023/06/05 08:28:07;;;;;;;7.13;4.68;;;27.00;60.90;;;;;;5112001;28;20601;-76
2023/06/05 08:30:35;;;;;;;7.10;4.88;;;27.50;58.00;;;;;;5112013;28;20209;-77
2023/06/05 08:33:03;;;;;;;6.22;4.45;;;27.60;57.60;;;;;;5108050;28;20239;-76
2023/06/05 08:35:32;;;;;;;4.75;4.25;;;27.80;58.60;;;;;;5091801;28;20298;-77
2023/06/05 08:38:01;;;;;;;6.80;4.20;;;27.00;60.30;;;;;;5108153;28;20206;-76
2023/06/05 08:40:31;;;;;;;8.50;4.32;;;27.70;59.60;;;;;;5097311;28;20218;-77
2023/06/05 08:43:01;;;;;;;6.35;4.75;;;27.40;59.50;;;;;;5090814;28;20207;-80
2023/06/05 08:45:32;;;;;;;5.07;4.32;;;27.60;56.10;;;;;;5091529;28;20641;-75
2023/06/05 08:48:01;;;;;;;5.57;4.05;;;27.10;58.30;;;;;;5103657;28;20251;-78
2023/06/05 08:50:30;;;;;;;8.52;4.60;;;26.60;60.20;;;;;;5105814;28;20661;-79
2023/06/05 08:53:01;;;;;;;5.47;4.63;;;26.20;60.60;;;;;;5091387;28;20252;-77
2023/06/05 08:55:29;;;;;;;5.35;4.50;;;26.60;61.60;;;;;;5111366;28;20696;-78
2023/06/05 08:57:58;;;;;;;6.53;4.60;;;27.30;59.10;;;;;;5112285;28;20202;-76
2023/06/05 09:00:26;;;;;;;6.78;4.90;;;27.40;57.50;;;;;;5110242;28;20636;-77
2023/06/05 09:02:56;;;;;;;9.35;4.40;;;26.70;57.20;;;;;;5111443;28;20668;-78
2023/06/05 09:05:25;;;;;;;5.35;4.07;;;26.90;58.40;;;;;;5111675;28;20729;-77
2023/06/05 09:07:54;;;;;;;5.57;4.00;;;26.80;59.30;;;;;;5111925;28;20283;-78
2023/06/05 09:10:24;;;;;;;6.78;4.68;;;27.20;59.60;;;;;;5095211;28;20601;-78
2023/06/05 09:12:56;;;;;;;6.72;4.13;;;26.50;60.50;;;;;;5102772;28;20690;-76
2023/06/05 09:15:26;;;;;;;6.78;4.25;;;26.80;60.70;;;;;;5111945;28;20251;-79
2023/06/05 09:18:08;;;;;;;6.15;4.53;;;27.10;61.10;;;;;;5111531;28;20198;-78
2023/06/05 09:20:37;;;;;;;5.50;4.18;;;27.60;55.40;;;;;;5115763;28;20206;-78
2023/06/05 09:23:24;;;;;;;7.05;4.63;;;27.50;56.10;;;;;;5114995;27;20304;-77
2023/06/05 09:25:55;;;;;;;8.18;4.28;;;26.90;57.90;;;;;;5115017;28;20210;-76
2023/06/05 09:28:23;;;;;;;6.45;3.80;;;27.60;56.30;;;;;;5112964;28;20242;-76
2023/06/05 09:31:01;;;;;;;5.18;3.80;;;28.20;57.50;;;;;;5115130;28;20218;-78
2023/06/05 09:33:33;;;;;;;4.93;3.88;;;28.30;55.80;;;;;;5114907;28;20233;-79
2023/06/05 09:36:07;;;;;;;4.85;3.67;;;28.90;54.80;;;;;;5114898;28;20198;-77
2023/06/05 09:38:37;;;;;;;6.00;3.90;;;29.00;53.90;;;;;;5095877;28;20207;-79
2023/06/05 09:41:06;;;;;;;4.72;3.95;;;29.10;54.00;;;;;;5094475;28;20298;-76
2023/06/05 09:43:35;;;;;;;4.70;3.75;;;29.30;51.00;;;;;;5094210;28;20226;-77
2023/06/05 09:46:07;;;;;;;6.88;4.00;;;29.60;51.00;;;;;;5095014;28;20215;-76
2023/06/05 09:48:37;;;;;;;4.20;3.80;;;30.10;48.90;;;;;;5094107;28;20227;-77
2023/06/05 09:51:10;;;;;;;4.72;3.72;;;30.30;52.00;;;;;;5094351;28;20254;-77
2023/06/05 09:53:43;;;;;;;5.10;4.07;;;30.10;50.50;;;;;;5093522;28;20257;-78
2023/06/05 09:56:14;;;;;;;5.78;3.92;;;29.30;52.40;;;;;;5094186;28;20202;-78
2023/06/05 09:58:45;;;;;;;6.70;3.90;;;29.20;51.90;;;;;;5094396;28;20268;-76
2023/06/05 10:01:17;;;;;;;5.60;3.67;;;29.10;51.20;;;;;;5094489;28;20657;-76
2023/06/05 10:03:58;;;;;;;6.40;3.92;;;29.30;52.20;;;;;;5094352;28;20203;-79
2023/06/05 10:06:28;;;;;;;6.90;4.05;;;29.70;50.30;;;;;;5094348;28;20191;-76
2023/06/05 10:08:57;;;;;;;6.32;3.95;;;28.60;51.00;;;;;;5093942;28;20237;-77
2023/06/05 10:11:26;;;;;;;6.00;4.20;;;28.30;51.50;;;;;;5103393;28;20236;-78
2023/06/05 10:13:55;;;;;;;6.75;4.00;;;28.60;53.20;;;;;;5108789;28;20619;-76
2023/06/05 10:16:23;;;;;;;4.50;3.63;;;28.60;50.70;;;;;;5114311;27;20210;-75
2023/06/05 10:18:56;;;;;;;5.85;3.67;;;29.40;50.70;;;;;;5107171;28;20564;-78
2023/06/05 10:21:25;;;;;;;4.25;3.15;;;29.80;50.70;;;;;;5093596;28;20199;-77
2023/06/05 10:23:57;;;;;;;5.60;3.80;;;29.80;50.10;;;;;;5096993;28;20629;-77
2023/06/05 10:26:46;;;;;;;4.55;3.60;;;29.50;52.80;;;;;;5114437;27;20238;-76
2023/06/05 10:29:34;;;;;;;3.80;3.33;;;30.70;48.40;;;;;;5113854;28;20276;-77
2023/06/05 10:32:07;;;;;;;5.32;3.55;;;30.30;47.70;;;;;;5095694;28;20211;-79
2023/06/05 10:34:49;;;;;;;5.55;3.60;;;29.90;46.20;;;;;;5093725;28;20229;-77
2023/06/05 10:37:48;;;;;;;4.03;3.47;;;28.90;49.80;;;;;;5094211;28;20306;-76
2023/06/05 10:40:18;;;;;;;6.13;3.55;;;29.00;49.70;;;;;;5093366;28;20213;-77
2023/06/05 10:42:46;;;;;;;6.40;3.55;;;28.00;49.30;;;;;;5105516;28;20206;-77
2023/06/05 10:45:29;;;;;;;4.15;3.67;;;26.80;52.80;;;;;;5113810;28;20214;-77
2023/06/05 10:47:58;;;;;;;6.85;3.78;;;26.30;53.90;;;;;;5106881;28;20238;-80
2023/06/05 10:50:31;;;;;;;4.07;3.47;;;27.00;55.60;;;;;;5093317;28;20207;-76
2023/06/05 10:52:59;;;;;;;5.38;3.33;;;27.90;54.10;;;;;;5093517;28;20625;-77
2023/06/05 10:55:41;;;;;;;5.35;3.47;;;28.00;51.60;;;;;;5093240;28;20202;-76
2023/06/05 10:58:13;;;;;;;4.10;3.08;;;28.30;51.10;;;;;;5093131;28;20259;-78
2023/06/05 11:01:17;;;;;;;6.05;3.63;;;28.80;51.80;;;;;;5092948;28;20225;-79
2023/06/05 11:03:56;;;;;;;4.68;3.35;;;29.20;50.20;;;;;;5092901;28;20668;-78
2023/06/05 11:06:27;;;;;;;5.65;3.35;;;28.40;51.90;;;;;;5094259;28;20206;-77
2023/06/05 11:09:09;;;;;;;4.85;3.47;;;26.70;53.90;;;;;;5094172;28;20720;-77
2023/06/05 11:11:56;;;;;;;4.47;3.83;;;25.00;57.60;;;;;;5102390;28;20481;-78
2023/06/05 11:14:25;;;;;;;6.10;3.50;;;24.40;60.00;;;;;;5113685;28;20241;-76
2023/06/05 11:16:53;;;;;;;6.17;3.60;;;24.10;62.50;;;;;;5116038;28;20641;-79
2023/06/05 11:19:38;;;;;;;5.27;3.63;;;24.00;64.30;;;;;;5114110;28;20655;-78
2023/06/05 11:22:11;;;;;;;5.17;3.70;;;24.40;63.80;;;;;;5094685;28;20290;-78
2023/06/05 11:24:39;;;;;;;4.00;3.60;;;24.10;63.10;;;;;;5093195;28;20226;-79
2023/06/05 11:27:28;;;;;;;5.10;3.23;;;24.20;64.00;;;;;;5093563;28;20317;-77
2023/06/05 11:29:57;;;;;;;5.27;3.40;;;24.40;65.80;;;;;;5091964;28;20296;-76
2023/06/05 11:32:27;;;;;;;3.93;3.33;;;24.20;66.00;;;;;;5092244;28;20263;-76
2023/06/05 11:34:58;;;;;;;6.60;3.87;;;24.20;68.00;;;;;;5090912;28;20294;-78
2023/06/05 11:37:28;;;;;;;6.07;3.63;;;24.30;66.10;;;;;;5109341;28;20198;-76
2023/06/05 11:39:56;;;;;;;4.93;3.10;;;24.60;65.90;;;;;;5110907;28;20656;-77
2023/06/05 11:42:24;;;;;;;4.37;3.50;;;24.50;68.00;;;;;;5098228;28;20233;-76
2023/06/05 11:44:53;;;;;;;4.93;4.00;;;24.50;66.40;;;;;;5107852;28;20210;-77
2023/06/05 11:47:24;;;;;;;7.50;3.63;;;24.00;68.30;;;;;;5112457;28;20209;-78
2023/06/05 11:49:52;;;;;;;6.60;3.60;;;24.00;69.10;;;;;;5111248;28;20218;-77
2023/06/05 11:52:22;;;;;;;5.93;3.40;;;23.50;69.90;;;;;;5112540;28;20577;-78
2023/06/05 11:55:05;;;;;;;5.10;3.60;;;23.50;72.60;;;;;;5097957;28;20207;-78
2023/06/05 11:57:41;;;;;;;8.93;3.70;;;23.50;73.10;;;;;;5092189;28;20831;-78
2023/06/05 12:00:24;;;;;;;4.63;3.60;;;23.50;71.70;;;;;;5092125;28;20586;-77
2023/06/05 12:02:53;;;;;;;5.00;3.60;;;23.20;72.20;;;;;;5091557;28;20728;-75
2023/06/05 12:05:21;;;;;;;5.13;3.40;;;23.40;73.40;;;;;;5091670;28;20214;-76
2023/06/05 12:07:50;;;;;;;5.63;3.37;;;23.30;73.20;;;;;;5092007;28;20210;-75
2023/06/05 12:10:20;;;;;;;6.67;3.80;;;23.00;73.70;;;;;;5091686;28;20211;-75
2023/06/05 12:12:52;;;;;;;3.97;3.40;;;22.90;73.70;;;;;;5091345;28;20258;-77
2023/06/05 12:15:22;;;;;;;4.90;3.60;;;23.60;77.00;;;;;;5091431;28;20214;-75
2023/06/05 12:17:51;;;;;;;5.03;3.60;;;24.10;73.80;;;;;;5107974;28;20208;-77
2023/06/05 12:20:19;;;;;;;7.03;3.50;;;24.20;71.90;;;;;;5111739;28;20194;-78
2023/06/05 12:22:48;;;;;;;7.40;3.47;;;24.70;72.20;;;;;;5109492;28;20217;-77
2023/06/05 12:25:17;;;;;;;4.10;3.63;;;24.60;71.80;;;;;;5111064;28;20210;-76
2023/06/05 12:27:50;;;;;;;5.20;3.37;;;24.40;71.90;;;;;;5111654;28;20202;-77
2023/06/05 12:30:19;;;;;;;4.13;3.20;;;24.40;70.80;;;;;;5109300;28;20267;-77
2023/06/05 12:32:51;;;;;;;5.23;3.53;;;24.50;71.70;;;;;;5110351;28;20224;-76
2023/06/05 12:35:19;;;;;;;4.80;3.70;;;24.60;73.60;;;;;;5109080;28;20247;-79
2023/06/05 12:37:49;;;;;;;4.83;3.50;;;23.80;70.30;;;;;;5111495;28;20198;-77
2023/06/05 12:40:20;;;;;;;4.17;3.20;;;23.80;72.50;;;;;;5110699;28;20194;-78
2023/06/05 12:43:04;;;;;;;4.30;3.20;;;23.30;73.00;;;;;;5109515;28;20198;-77
2023/06/05 12:45:33;;;;;;;5.23;3.43;;;22.70;75.00;;;;;;5113108;28;20656;-76
2023/06/05 12:48:01;;;;;;;4.40;3.10;;;22.50;76.90;;;;;;5110555;28;20209;-77
2023/06/05 12:50:30;;;;;;;4.63;3.13;;;22.60;77.10;;;;;;5108537;28;20228;-78
2023/06/05 12:52:58;;;;;;;5.10;3.10;;;22.50;79.10;;;;;;5109086;28;20555;-78
2023/06/05 12:55:27;;;;;;;3.53;3.17;;;22.60;78.60;;;;;;5116110;28;20198;-78
2023/06/05 12:57:55;;;;;;;3.93;3.07;;;22.80;78.20;;;;;;5113259;28;20731;-78
2023/06/05 13:00:25;;;;;;;3.97;2.80;;;22.90;76.20;;;;;;5114240;28;20190;-77
2023/06/05 13:02:53;;;;;;;4.27;2.83;;;23.10;77.80;;;;;;5115898;28;20217;-78